createdAt,value
2023-04-24T00:01:35.314Z,99024.97
2023-04-24T00:04:15.479Z,99018.59
2023-04-24T00:06:59.074Z,99019.72
2023-04-24T00:09:33.887Z,99019.09
2023-04-24T00:12:14.041Z,99014.47
2023-04-24T00:14:51.742Z,99015.50
2023-04-24T00:17:40.609Z,99015.97
2023-04-24T00:20:31.135Z,99020.94
2023-04-24T00:23:09.230Z,99017.03
2023-04-24T00:25:48.430Z,99018.84
2023-04-24T00:28:41.338Z,99015.34
2023-04-24T00:31:16.651Z,99018.44
2023-04-24T00:33:52.074Z,99019.34
2023-04-24T00:36:35.034Z,99009.03
2023-04-24T00:39:17.810Z,99009.22
2023-04-24T00:41:58.657Z,99002.84
2023-04-24T00:44:37.454Z,99008.78
2023-04-24T00:47:20.153Z,99003.72
2023-04-24T00:50:01.569Z,99004.91
2023-04-24T00:52:43.560Z,99007.22
2023-04-24T00:55:29.607Z,99015.75
2023-04-24T00:58:09.949Z,99016.41
2023-04-24T01:00:45.059Z,99004.81
2023-04-24T01:03:38.198Z,99005.31
2023-04-24T01:06:17.761Z,99004.81
2023-04-24T01:09:06.932Z,99010.47
2023-04-24T01:11:51.138Z,99005.13
2023-04-24T01:14:41.228Z,99013.84
2023-04-24T01:17:17.847Z,99010.25
2023-04-24T01:20:07.313Z,99010.38
2023-04-24T01:22:54.478Z,99001.53
2023-04-24T01:25:40.900Z,99008.19
2023-04-24T01:28:27.290Z,99008.81
2023-04-24T01:31:06.169Z,99017.34
2023-04-24T01:33:48.988Z,99010.53
2023-04-24T01:36:27.234Z,99011.03
2023-04-24T01:39:08.038Z,99002.09
2023-04-24T01:41:54.810Z,98995.38
2023-04-24T01:44:41.401Z,99001.38
2023-04-24T01:47:22.109Z,98995.03
2023-04-24T01:50:05.374Z,98994.47
2023-04-24T01:52:51.041Z,98992.09
2023-04-24T01:55:37.203Z,98990.53
2023-04-24T01:58:18.534Z,98984.28
2023-04-24T02:01:16.807Z,98970.59
2023-04-24T02:03:58.908Z,98976.75
2023-04-24T02:06:48.126Z,98974.22
2023-04-24T02:09:34.538Z,98974.63
2023-04-24T02:12:13.060Z,98970.97
2023-04-24T02:14:58.950Z,98972.66
2023-04-24T02:17:42.866Z,98965.41
2023-04-24T02:20:23.876Z,98962.97
2023-04-24T02:23:09.308Z,98944.59
2023-04-24T02:25:49.853Z,98946.00
2023-04-24T02:28:30.084Z,98946.56
2023-04-24T02:31:07.525Z,98939.34
2023-04-24T02:33:48.398Z,98924.81
2023-04-24T02:36:32.325Z,98917.91
2023-04-24T02:39:05.424Z,98918.81
2023-04-24T02:41:49.594Z,98905.84
2023-04-24T02:44:30.037Z,98886.94
2023-04-24T02:47:06.297Z,98877.97
2023-04-24T02:49:39.045Z,98878.94
2023-04-24T02:52:16.485Z,98875.53
2023-04-24T02:54:55.088Z,98871.69
2023-04-24T02:57:38.713Z,98860.72
2023-04-24T03:00:10.313Z,98879.72
2023-04-24T03:02:51.392Z,98895.69
2023-04-24T03:05:29.001Z,98911.03
2023-04-24T03:08:10.321Z,98909.69
2023-04-24T03:10:43.117Z,98902.38
2023-04-24T03:13:24.361Z,98897.84
2023-04-24T03:16:05.131Z,98900.66
2023-04-24T03:18:45.490Z,98891.44
2023-04-24T03:21:32.576Z,98910.56
2023-04-24T03:24:06.888Z,98904.44
2023-04-24T03:26:48.508Z,98917.38
2023-04-24T03:29:36.226Z,98915.34
2023-04-24T03:32:12.150Z,98925.94
2023-04-24T03:34:53.200Z,98918.44
2023-04-24T03:37:27.740Z,98910.75
2023-04-24T03:40:23.775Z,98910.38
2023-04-24T03:43:04.524Z,98902.13
2023-04-24T03:45:47.703Z,98910.25
2023-04-24T03:48:29.217Z,98895.66
2023-04-24T03:51:04.066Z,98910.03
2023-04-24T03:53:43.335Z,98906.63
2023-04-24T03:56:19.180Z,98906.16
2023-04-24T03:58:58.619Z,98913.66
2023-04-24T04:01:37.766Z,98911.31
2023-04-24T04:04:34.059Z,98909.84
2023-04-24T04:07:15.140Z,98906.59
2023-04-24T04:10:04.602Z,98895.69
2023-04-24T04:12:45.520Z,98900.16
2023-04-24T04:15:28.193Z,98896.56
2023-04-24T04:18:21.960Z,98895.47
2023-04-24T04:21:11.261Z,98890.91
2023-04-24T04:23:53.869Z,98886.78
2023-04-24T04:26:38.184Z,98880.94
2023-04-24T04:29:18.439Z,98884.44
2023-04-24T04:32:02.009Z,98886.91
2023-04-24T04:34:49.936Z,98894.41
2023-04-24T04:37:38.538Z,98904.56
2023-04-24T04:40:44.270Z,98896.59
2023-04-24T04:43:28.359Z,98894.75
2023-04-24T04:46:23.717Z,98896.34
2023-04-24T04:49:45.037Z,98900.69
2023-04-24T04:52:37.880Z,98902.19
2023-04-24T04:55:34.248Z,98894.34
2023-04-24T04:58:37.970Z,98893.06
2023-04-24T05:01:18.608Z,98886.84
2023-04-24T05:04:01.277Z,98879.44
2023-04-24T05:06:47.326Z,98873.25
2023-04-24T05:09:30.742Z,98884.03
2023-04-24T05:12:16.472Z,98872.41
2023-04-24T05:15:01.214Z,98876.03
2023-04-24T05:17:48.799Z,98880.88
2023-04-24T05:20:33.266Z,98876.53
2023-04-24T05:23:12.950Z,98880.31
2023-04-24T05:25:59.348Z,98880.06
2023-04-24T05:28:54.684Z,98876.06
2023-04-24T05:31:30.288Z,98873.03
2023-04-24T05:34:10.640Z,98878.41
2023-04-24T05:36:55.324Z,98867.50
2023-04-24T05:39:36.089Z,98876.09
2023-04-24T05:42:21.934Z,98880.91
2023-04-24T05:45:08.641Z,98879.28
2023-04-24T05:47:54.532Z,98879.25
2023-04-24T05:50:37.142Z,98878.69
2023-04-24T05:53:22.945Z,98880.22
2023-04-24T05:55:58.402Z,98894.63
2023-04-24T05:58:45.337Z,98891.19
2023-04-24T06:01:29.068Z,98881.97
2023-04-24T06:04:26.288Z,98881.94
2023-04-24T06:07:07.231Z,98878.09
2023-04-24T06:09:50.508Z,98880.69
2023-04-24T06:12:38.880Z,98881.44
2023-04-24T06:15:23.322Z,98874.22
2023-04-24T06:18:12.343Z,98877.88
2023-04-24T06:20:58.300Z,98888.25
2023-04-24T06:23:50.464Z,98892.22
2023-04-24T06:26:32.296Z,98883.28
2023-04-24T06:29:15.567Z,98880.66
2023-04-24T06:32:01.929Z,98881.47
2023-04-24T06:34:37.727Z,98884.22
2023-04-24T06:37:28.304Z,98892.84
2023-04-24T06:40:13.908Z,98896.00
2023-04-24T06:42:55.280Z,98907.09
2023-04-24T06:45:44.366Z,98898.63
2023-04-24T06:48:33.061Z,98910.63
2023-04-24T06:51:19.885Z,98907.09
2023-04-24T06:54:08.700Z,98902.59
2023-04-24T06:56:48.908Z,98895.16
2023-04-24T06:59:33.069Z,98898.69
2023-04-24T07:02:16.893Z,98896.94
2023-04-24T07:04:57.677Z,98894.91
2023-04-24T07:07:35.760Z,98904.50
2023-04-24T07:10:17.329Z,98902.38
2023-04-24T07:12:57.697Z,98897.09
2023-04-24T07:15:42.061Z,98886.09
2023-04-24T07:18:35.191Z,98890.00
2023-04-24T07:21:13.780Z,98890.09
2023-04-24T07:23:57.399Z,98892.75
2023-04-24T07:26:48.307Z,98886.25
2023-04-24T07:29:26.564Z,98889.00
2023-04-24T07:32:10.602Z,98886.78
2023-04-24T07:34:50.672Z,98888.53
2023-04-24T07:37:34.272Z,98892.56
2023-04-24T07:40:21.519Z,98886.47
2023-04-24T07:43:01.945Z,98882.47
2023-04-24T07:45:47.459Z,98875.25
2023-04-24T07:48:30.549Z,98879.38
2023-04-24T07:51:21.407Z,98879.63
2023-04-24T07:54:10.421Z,98883.81
2023-04-24T07:56:54.051Z,98878.25
2023-04-24T07:59:38.486Z,98873.78
2023-04-24T08:02:32.117Z,98869.75
2023-04-24T08:05:18.445Z,98876.25
2023-04-24T08:08:05.760Z,98878.41
2023-04-24T08:10:52.396Z,98875.13
2023-04-24T08:13:42.269Z,98877.03
2023-04-24T08:16:21.487Z,98880.84
2023-04-24T08:19:05.212Z,98883.00
2023-04-24T08:21:52.149Z,98884.88
2023-04-24T08:24:28.267Z,98880.56
2023-04-24T08:27:03.980Z,98876.69
2023-04-24T08:29:46.507Z,98875.28
2023-04-24T08:32:28.936Z,98875.88
2023-04-24T08:35:09.776Z,98873.88
2023-04-24T08:37:58.567Z,98882.22
2023-04-24T08:40:38.589Z,98877.56
2023-04-24T08:43:23.816Z,98884.06
2023-04-24T08:46:06.569Z,98879.88
2023-04-24T08:48:59.026Z,98886.00
2023-04-24T08:51:40.623Z,98878.69
2023-04-24T08:54:26.842Z,98879.81
2023-04-24T08:57:10.600Z,98882.84
2023-04-24T08:59:56.746Z,98879.78
2023-04-24T09:02:41.890Z,98879.09
2023-04-24T09:05:23.209Z,98865.81
2023-04-24T09:08:26.399Z,98879.66
2023-04-24T09:11:09.352Z,98871.03
2023-04-24T09:13:51.627Z,98872.94
2023-04-24T09:16:42.998Z,98874.00
2023-04-24T09:19:25.960Z,98869.91
2023-04-24T09:22:12.589Z,98858.53
2023-04-24T09:24:58.074Z,98865.78
2023-04-24T09:27:37.963Z,98861.28
2023-04-24T09:30:37.789Z,98857.81
2023-04-24T09:33:17.232Z,98857.41
2023-04-24T09:35:58.872Z,98859.41
2023-04-24T09:38:45.274Z,98850.41
2023-04-24T09:41:26.302Z,98854.94
2023-04-24T09:44:20.562Z,98841.63
2023-04-24T09:47:01.694Z,98835.13
2023-04-24T09:49:45.781Z,98836.31
2023-04-24T09:52:35.818Z,98836.13
2023-04-24T09:55:26.574Z,98833.75
2023-04-24T09:58:12.239Z,98825.72
2023-04-24T10:01:01.513Z,98826.81
2023-04-24T10:03:46.782Z,98824.81
2023-04-24T10:06:39.640Z,98819.22
2023-04-24T10:09:24.394Z,98818.00
2023-04-24T10:12:09.167Z,98816.84
2023-04-24T10:14:54.902Z,98817.09
2023-04-24T10:17:30.209Z,98804.63
2023-04-24T10:20:14.648Z,98813.25
2023-04-24T10:23:01.285Z,98812.00
2023-04-24T10:25:41.737Z,98809.16
2023-04-24T10:28:28.282Z,98820.34
2023-04-24T10:31:10.849Z,98813.84
2023-04-24T10:33:58.202Z,98819.75
2023-04-24T10:36:45.523Z,98809.13
2023-04-24T10:39:30.380Z,98805.63
2023-04-24T10:42:23.944Z,98808.97
2023-04-24T10:44:56.818Z,98803.75
2023-04-24T10:47:49.483Z,98802.09
2023-04-24T10:50:49.341Z,98794.41
2023-04-24T10:53:28.567Z,98802.41
2023-04-24T10:56:16.870Z,98796.59
2023-04-24T10:58:57.295Z,98806.84
2023-04-24T11:01:39.509Z,98805.72
2023-04-24T11:04:30.047Z,98799.09
2023-04-24T11:07:23.043Z,98811.41
2023-04-24T11:10:12.757Z,98810.22
2023-04-24T11:12:46.044Z,98806.50
2023-04-24T11:15:21.528Z,98806.34
2023-04-24T11:18:02.711Z,98807.06
2023-04-24T11:21:03.458Z,98798.22
2023-04-24T11:23:58.570Z,98801.81
2023-04-24T11:26:43.666Z,98801.00
2023-04-24T11:29:22.271Z,98798.75
2023-04-24T11:32:24.211Z,98796.41
2023-04-24T11:35:17.870Z,98795.38
2023-04-24T11:38:19.436Z,98795.72
2023-04-24T11:41:00.273Z,98796.25
2023-04-24T11:43:40.333Z,98792.91
2023-04-24T11:46:46.680Z,98790.50
2023-04-24T11:49:31.503Z,98795.00
2023-04-24T11:52:19.069Z,98796.03
2023-04-24T11:55:09.060Z,98796.09
2023-04-24T11:58:00.202Z,98797.97
2023-04-24T12:00:37.366Z,98786.63
2023-04-24T12:03:24.128Z,98788.66
2023-04-24T12:06:09.431Z,98783.09
2023-04-24T12:08:46.672Z,98779.88
2023-04-24T12:11:27.649Z,98770.44
2023-04-24T12:14:16.793Z,98764.25
2023-04-24T12:17:03.034Z,98768.50
2023-04-24T12:19:46.482Z,98764.06
2023-04-24T12:22:27.725Z,98758.03
2023-04-24T12:25:11.010Z,98756.31
2023-04-24T12:28:05.007Z,98752.19
2023-04-24T12:30:51.323Z,98745.88
2023-04-24T12:33:40.049Z,98746.09
2023-04-24T12:36:28.329Z,98741.06
2023-04-24T12:39:20.947Z,98737.84
2023-04-24T12:42:02.294Z,98729.75
2023-04-24T12:44:45.339Z,98721.63
2023-04-24T12:47:29.267Z,98716.53
2023-04-24T12:50:09.309Z,98709.84
2023-04-24T12:52:56.122Z,98703.94
2023-04-24T12:55:43.307Z,98697.47
2023-04-24T12:58:20.857Z,98692.88
2023-04-24T13:01:06.408Z,98685.66
2023-04-24T13:03:52.932Z,98688.44
2023-04-24T13:06:36.810Z,98689.94
2023-04-24T13:09:16.980Z,98699.88
2023-04-24T13:11:57.953Z,98706.09
2023-04-24T13:14:41.518Z,98705.31
2023-04-24T13:17:40.312Z,98695.66
2023-04-24T13:20:13.249Z,98694.78
2023-04-24T13:22:48.577Z,98684.28
2023-04-24T13:25:30.869Z,98684.94
2023-04-24T13:28:07.680Z,98679.56
2023-04-24T13:30:44.959Z,98668.53
2023-04-24T13:33:23.293Z,98660.72
2023-04-24T13:36:07.526Z,98661.59
2023-04-24T13:38:39.625Z,98665.72
2023-04-24T13:41:23.299Z,98676.31
2023-04-24T13:44:04.007Z,98691.31
2023-04-24T13:46:44.458Z,98683.69
2023-04-24T13:49:37.412Z,98685.69
2023-04-24T13:52:15.112Z,98683.78
2023-04-24T13:54:57.809Z,98688.69
2023-04-24T13:57:36.156Z,98685.41
2023-04-24T14:00:21.423Z,98687.28
2023-04-24T14:03:02.815Z,98678.34
2023-04-24T14:05:42.720Z,98674.44
2023-04-24T14:08:25.959Z,98676.69
2023-04-24T14:11:07.325Z,98664.56
2023-04-24T14:13:58.200Z,98667.84
2023-04-24T14:16:33.948Z,98660.50
2023-04-24T14:19:20.213Z,98675.19
2023-04-24T14:21:59.372Z,98678.75
2023-04-24T14:24:34.284Z,98672.50
2023-04-24T14:27:09.481Z,98676.25
2023-04-24T14:30:01.835Z,98679.28
2023-04-24T14:32:45.183Z,98663.50
2023-04-24T14:35:23.939Z,98663.75
2023-04-24T14:37:58.878Z,98657.22
2023-04-24T14:43:29.810Z,98664.59
2023-04-24T14:46:06.756Z,98665.94
2023-04-24T14:48:44.951Z,98671.38
2023-04-24T14:51:25.609Z,98659.16
2023-04-24T14:53:59.423Z,98666.50
2023-04-24T14:56:39.277Z,98672.50
2023-04-24T14:59:14.370Z,98671.94
2023-04-24T15:02:04.946Z,98676.03
2023-04-24T15:04:49.932Z,98682.81
2023-04-24T15:07:34.666Z,98697.22
2023-04-24T15:10:12.493Z,98686.63
2023-04-24T15:13:02.289Z,98696.97
2023-04-24T15:15:52.611Z,98696.97
2023-04-24T15:18:30.424Z,98698.88
2023-04-24T15:21:14.738Z,98699.41
2023-04-24T15:23:58.399Z,98709.47
2023-04-24T15:26:41.670Z,98711.94
2023-04-24T15:29:25.730Z,98708.91
2023-04-24T15:32:04.547Z,98703.22
2023-04-24T15:34:49.448Z,98704.56
2023-04-24T15:37:36.612Z,98702.41
2023-04-24T15:40:18.596Z,98713.28
2023-04-24T15:42:57.411Z,98716.00
2023-04-24T15:45:38.536Z,98709.75
2023-04-24T15:48:19.616Z,98705.94
2023-04-24T15:50:55.581Z,98704.81
2023-04-24T15:53:41.805Z,98713.25
2023-04-24T15:56:30.282Z,98711.38
2023-04-24T15:59:15.050Z,98713.81
2023-04-24T16:02:00.357Z,98708.63
2023-04-24T16:04:43.748Z,98711.09
2023-04-24T16:07:27.409Z,98713.53
2023-04-24T16:10:09.298Z,98708.88
2023-04-24T16:12:48.130Z,98711.91
2023-04-24T16:15:29.362Z,98712.97
2023-04-24T16:18:02.391Z,98700.50
2023-04-24T16:20:43.596Z,98703.47
2023-04-24T16:23:24.014Z,98694.78
2023-04-24T16:26:13.056Z,98698.88
2023-04-24T16:28:53.814Z,98693.69
2023-04-24T16:31:29.324Z,98702.09
2023-04-24T16:34:13.341Z,98690.97
2023-04-24T16:36:48.316Z,98699.41
2023-04-24T16:39:29.725Z,98698.03
2023-04-24T16:42:13.279Z,98697.78
2023-04-24T16:44:48.861Z,98692.34
2023-04-24T16:47:33.988Z,98690.72
2023-04-24T16:50:06.727Z,98693.97
2023-04-24T16:52:56.298Z,98694.50
2023-04-24T16:55:37.021Z,98689.88
2023-04-24T16:58:17.672Z,98691.25
2023-04-24T17:00:56.225Z,98695.88
2023-04-24T17:03:39.637Z,98701.31
2023-04-24T17:06:15.354Z,98701.03
2023-04-24T17:09:04.813Z,98702.38
2023-04-24T17:11:46.150Z,98704.81
2023-04-24T17:14:31.101Z,98707.50
2023-04-24T17:17:14.215Z,98705.09
2023-04-24T17:19:49.128Z,98709.97
2023-04-24T17:22:28.657Z,98711.88
2023-04-24T17:25:06.867Z,98707.78
2023-04-24T17:27:59.300Z,98710.44
2023-04-24T17:30:37.691Z,98705.53
2023-04-24T17:33:18.065Z,98718.56
2023-04-24T17:35:49.172Z,98713.41
2023-04-24T17:38:30.318Z,98712.25
2023-04-24T17:41:08.017Z,98716.13
2023-04-24T17:43:56.306Z,98717.44
2023-04-24T17:46:34.376Z,98710.88
2023-04-24T17:49:18.289Z,98719.03
2023-04-24T17:52:06.407Z,98732.88
2023-04-24T17:54:49.777Z,98724.72
2023-04-24T17:57:37.122Z,98733.09
2023-04-24T18:00:14.984Z,98730.94
2023-04-24T18:03:04.278Z,98730.59
2023-04-24T18:05:55.636Z,98728.44
2023-04-24T18:08:39.383Z,98734.69
2023-04-24T18:11:20.262Z,98737.88
2023-04-24T18:14:08.736Z,98743.94
2023-04-24T18:16:50.844Z,98748.78
2023-04-24T18:19:34.772Z,98747.44
2023-04-24T18:22:19.245Z,98743.31
2023-04-24T18:24:59.754Z,98752.56
2023-04-24T18:27:44.152Z,98753.31
2023-04-24T18:30:33.924Z,98745.47
2023-04-24T18:33:28.328Z,98758.00
2023-04-24T18:36:01.412Z,98755.84
2023-04-24T18:38:37.590Z,98761.84
2023-04-24T18:41:20.974Z,98761.91
2023-04-24T18:44:04.682Z,98769.44
2023-04-24T18:46:48.531Z,98766.78
2023-04-24T18:49:30.250Z,98774.03
2023-04-24T18:52:19.196Z,98773.53
2023-04-24T18:54:57.895Z,98772.72
2023-04-24T18:57:45.179Z,98779.78
2023-04-24T19:00:26.342Z,98777.00
2023-04-24T19:03:11.304Z,98775.38
2023-04-24T19:05:58.291Z,98780.19
2023-04-24T19:08:42.026Z,98785.06
2023-04-24T19:11:29.319Z,98778.53
2023-04-24T19:14:13.662Z,98785.06
2023-04-24T19:16:52.008Z,98781.47
2023-04-24T19:19:39.117Z,98782.28
2023-04-24T19:22:25.051Z,98787.63
2023-04-24T19:25:08.605Z,98791.59
2023-04-24T19:27:48.537Z,98788.84
2023-04-24T19:30:29.261Z,98787.75
2023-04-24T19:33:22.193Z,98788.28
2023-04-24T19:36:00.799Z,98795.25
2023-04-24T19:38:43.529Z,98789.97
2023-04-24T19:41:30.688Z,98792.19
2023-04-24T19:44:09.296Z,98791.59
2023-04-24T19:46:50.667Z,98788.72
2023-04-24T19:49:37.307Z,98796.50
2023-04-24T19:52:15.555Z,98797.00
2023-04-24T19:54:59.278Z,98796.75
2023-04-24T19:57:42.556Z,98793.69
2023-04-24T20:00:21.410Z,98790.88
2023-04-24T20:02:54.095Z,98783.78
2023-04-24T20:05:40.207Z,98779.44
2023-04-24T20:08:20.451Z,98779.59
2023-04-24T20:11:04.244Z,98779.84
2023-04-24T20:13:42.285Z,98780.56
2023-04-24T20:16:22.070Z,98776.69
2023-04-24T20:19:05.161Z,98777.69
2023-04-24T20:21:43.035Z,98773.84
2023-04-24T20:24:23.251Z,98778.56
2023-04-24T20:27:10.089Z,98770.69
2023-04-24T20:29:49.230Z,98776.25
2023-04-24T20:32:32.623Z,98773.34
2023-04-24T20:35:10.741Z,98777.22
2023-04-24T20:37:55.338Z,98778.06
2023-04-24T20:40:36.084Z,98773.41
2023-04-24T20:43:17.398Z,98767.88
2023-04-24T20:45:58.538Z,98779.31
2023-04-24T20:48:41.259Z,98781.25
2023-04-24T20:51:18.880Z,98780.44
2023-04-24T20:53:59.563Z,98783.69
2023-04-24T20:56:41.456Z,98788.28
2023-04-24T20:59:21.875Z,98780.16
2023-04-24T21:02:02.417Z,98774.22
2023-04-24T21:04:43.237Z,98778.19
2023-04-24T21:07:29.239Z,98777.13
2023-04-24T21:10:02.245Z,98771.50
2023-04-24T21:12:46.033Z,98765.34
2023-04-24T21:15:36.286Z,98763.38
2023-04-24T21:18:17.304Z,98772.13
2023-04-24T21:20:56.882Z,98761.06
2023-04-24T21:23:36.310Z,98763.81
2023-04-24T21:26:16.487Z,98759.09
2023-04-24T21:29:00.662Z,98762.34
2023-04-24T21:31:41.292Z,98772.69
2023-04-24T21:34:17.232Z,98769.00
2023-04-24T21:36:55.505Z,98759.28
2023-04-24T21:39:36.289Z,98762.00
2023-04-24T21:42:14.498Z,98759.09
2023-04-24T21:44:51.949Z,98757.63
2023-04-24T21:47:28.349Z,98753.56
2023-04-24T21:50:04.450Z,98751.00
2023-04-24T21:52:46.245Z,98747.09
2023-04-24T21:55:24.752Z,98753.34
2023-04-24T21:57:56.895Z,98745.22
2023-04-24T22:00:29.389Z,98744.16
2023-04-24T22:03:10.603Z,98744.22
2023-04-24T22:05:48.022Z,98745.22
2023-04-24T22:08:24.704Z,98744.16
2023-04-24T22:11:11.012Z,98737.72
2023-04-24T22:13:52.039Z,98734.69
2023-04-24T22:16:34.567Z,98744.09
2023-04-24T22:19:14.497Z,98734.31
2023-04-24T22:21:55.420Z,98738.97
2023-04-24T22:24:39.204Z,98733.28
2023-04-24T22:27:17.495Z,98728.72
2023-04-24T22:30:01.640Z,98731.66
2023-04-24T22:32:48.450Z,98726.78
2023-04-24T22:35:29.174Z,98734.31
2023-04-24T22:37:59.499Z,98726.47
2023-04-24T22:40:34.256Z,98724.69
2023-04-24T22:43:17.449Z,98728.84
2023-04-24T22:46:05.200Z,98734.47
2023-04-24T22:48:50.277Z,98716.72
2023-04-24T22:51:28.091Z,98719.66
2023-04-24T22:54:09.125Z,98714.88
2023-04-24T22:56:52.828Z,98714.38
2023-04-24T22:59:33.493Z,98719.94
2023-04-24T23:02:14.336Z,98723.50
2023-04-24T23:05:04.796Z,98719.38
2023-04-24T23:07:48.410Z,98712.22
2023-04-24T23:10:27.260Z,98703.50
2023-04-24T23:13:07.606Z,98709.22
2023-04-24T23:15:54.480Z,98707.84
2023-04-24T23:18:36.729Z,98715.78
2023-04-24T23:21:23.016Z,98702.31
2023-04-24T23:24:08.328Z,98714.47
2023-04-24T23:26:49.652Z,98716.91
2023-04-24T23:29:27.980Z,98721.00
2023-04-24T23:32:05.861Z,98715.44
2023-04-24T23:34:45.976Z,98714.13
2023-04-24T23:37:26.601Z,98709.91
2023-04-24T23:40:10.428Z,98705.88
2023-04-24T23:43:05.508Z,98700.09
2023-04-24T23:45:38.565Z,98701.69
2023-04-24T23:48:17.037Z,98698.53
2023-04-24T23:51:01.191Z,98701.28
2023-04-24T23:53:50.586Z,98691.78
2023-04-24T23:56:37.590Z,98690.91
2023-04-24T23:59:33.772Z,98692.19
